Time;durP1;ratioP1;P1;durP2;ratioP2;P2;SDS_P1;SDS_P2;PMS_P1;PMS_P2;Temp;Humidity;BMP_temperature;BMP_pressure;BME280_temperature;BME280_humidity;BME280_pressure;Samples;Min_cycle;Max_cycle;Signal;HPM_P1;HPM_P2
2022/09/30 00:01:50;;;;;;;0.10;0.10;;;;;;;9.21;89.09;99550.53;5027746;28;20049;-65
2022/09/30 00:04:18;;;;;;;0.10;0.10;;;;;;;9.12;89.57;99546.69;5025131;28;20471;-66
2022/09/30 00:06:45;;;;;;;0.10;0.10;;;;;;;9.00;89.96;99546.94;5028503;28;20045;-65
2022/09/30 00:09:11;;;;;;;0.32;0.10;;;;;;;8.90;90.57;99540.41;5027637;28;20057;-64
2022/09/30 00:11:39;;;;;;;0.10;0.10;;;;;;;8.83;90.87;99545.28;5043565;28;20135;-64
2022/09/30 00:14:05;;;;;;;;;;;;;;;8.77;91.02;99557.28;5065306;28;20079;-65
2022/09/30 00:16:36;;;;;;;0.10;0.10;;;;;;;8.72;91.52;99552.63;5063678;28;19924;-63
2022/09/30 00:19:03;;;;;;;0.10;0.10;;;;;;;8.68;91.86;99567.88;5065331;28;20050;-65
2022/09/30 00:21:30;;;;;;;0.20;0.20;;;;;;;8.66;92.29;99564.59;5066256;28;20526;-65
2022/09/30 00:23:56;;;;;;;0.10;0.10;;;;;;;8.63;92.14;99570.56;5063583;28;20078;-65
2022/09/30 00:26:23;;;;;;;0.10;0.10;;;;;;;8.61;92.47;99570.03;5071413;28;20512;-64
2022/09/30 00:28:50;;;;;;;0.10;0.10;;;;;;;8.62;92.61;99568.94;5067915;28;20504;-63
2022/09/30 00:31:18;;;;;;;0.10;0.10;;;;;;;8.60;92.87;99573.84;5067002;28;20349;-65
2022/09/30 00:36:33;;;;;;;0.10;0.10;;;;;;;8.56;93.00;99580.91;5066199;28;20515;-65
2022/09/30 00:38:59;;;;;;;0.10;0.10;;;;;;;8.54;93.18;99588.56;5067534;28;20482;-65
2022/09/30 00:41:24;;;;;;;0.10;0.10;;;;;;;8.51;93.40;99574.38;5068953;28;20037;-64
2022/09/30 00:43:52;;;;;;;0.13;0.10;;;;;;;8.49;93.48;99579.22;5065162;28;20055;-64
2022/09/30 00:46:23;;;;;;;0.20;0.20;;;;;;;8.47;93.62;99581.38;5066546;28;20051;-65
2022/09/30 00:48:53;;;;;;;0.10;0.10;;;;;;;8.43;94.06;99584.91;5065283;28;20058;-65
2022/09/30 00:51:26;;;;;;;0.00;0.00;;;;;;;8.40;94.02;99580.00;5068768;28;20183;-66
2022/09/30 00:53:57;;;;;;;0.15;0.10;;;;;;;8.35;94.27;99578.91;5053102;28;20136;-65
2022/09/30 00:56:26;;;;;;;0.40;0.20;;;;;;;8.30;94.33;99586.22;5047438;28;20056;-66
2022/09/30 00:58:55;;;;;;;0.10;0.10;;;;;;;8.26;94.78;99591.38;5046255;28;20075;-66
2022/09/30 01:01:22;;;;;;;0.00;0.00;;;;;;;8.23;94.83;99602.78;5047123;28;20068;-66
2022/09/30 01:03:55;;;;;;;0.10;0.10;;;;;;;8.18;94.97;99606.31;5046124;28;20040;-64
2022/09/30 01:06:22;;;;;;;0.10;0.10;;;;;;;8.14;94.98;99601.66;5043886;28;20136;-65
2022/09/30 01:08:48;;;;;;;;;;;;;;;8.11;95.31;99596.72;5050187;28;20096;-64
2022/09/30 01:11:14;;;;;;;0.20;0.20;;;;;;;8.06;95.33;99597.53;5048496;28;19979;-65
2022/09/30 01:13:43;;;;;;;0.10;0.10;;;;;;;7.82;95.52;99556.28;5044622;28;20048;-65
2022/09/30 01:16:26;;;;;;;0.10;0.10;;;;;;;8.03;95.77;99601.59;5047853;28;20213;-65
2022/09/30 01:19:08;;;;;;;0.10;0.10;;;;;;;8.03;95.84;99600.75;5064995;28;20102;-64
2022/09/30 01:21:59;;;;;;;0.38;0.17;;;;;;;8.01;96.01;99601.03;5066441;28;20049;-64
2022/09/30 01:24:45;;;;;;;0.10;0.10;;;;;;;7.98;95.78;99590.69;5063458;28;20055;-64
2022/09/30 01:27:35;;;;;;;0.10;0.10;;;;;;;7.99;96.01;99591.50;5062590;28;20052;-65
2022/09/30 01:30:08;;;;;;;0.10;0.10;;;;;;;7.94;95.99;99586.81;5063299;28;20047;-66
2022/09/30 01:33:03;;;;;;;0.10;0.10;;;;;;;7.92;95.80;99587.09;5063322;28;20083;-65
2022/09/30 01:35:43;;;;;;;0.10;0.10;;;;;;;7.90;95.89;99583.84;5061636;28;20048;-66
2022/09/30 01:38:15;;;;;;;0.10;0.10;;;;;;;7.90;96.02;99593.88;5023626;28;20080;-64
2022/09/30 01:40:47;;;;;;;0.10;0.10;;;;;;;7.88;96.08;99587.88;5025284;28;20057;-66
2022/09/30 01:43:23;;;;;;;0.10;0.10;;;;;;;7.87;95.89;99587.06;5024012;28;20045;-65
2022/09/30 01:45:55;;;;;;;0.10;0.10;;;;;;;7.91;96.02;99609.13;5025291;28;20146;-65
2022/09/30 01:48:27;;;;;;;0.10;0.10;;;;;;;7.90;96.08;99594.72;5044942;28;20048;-65
2022/09/30 01:50:57;;;;;;;0.10;0.10;;;;;;;7.88;95.94;99590.59;5045049;28;20600;-65
2022/09/30 01:53:34;;;;;;;0.10;0.10;;;;;;;7.87;96.00;99592.50;5046353;28;20057;-65
2022/09/30 01:56:07;;;;;;;0.10;0.10;;;;;;;7.77;95.92;99584.28;5048624;28;20076;-65
2022/09/30 01:58:42;;;;;;;0.10;0.10;;;;;;;7.77;96.01;99592.44;5045795;28;20143;-65
2022/09/30 02:01:13;;;;;;;0.10;0.10;;;;;;;7.73;96.23;99592.13;5047246;28;20539;-65
2022/09/30 02:03:46;;;;;;;0.10;0.10;;;;;;;7.72;96.27;99587.78;5043584;28;20060;-65
2022/09/30 02:06:18;;;;;;;0.10;0.10;;;;;;;7.67;96.26;99587.75;5044348;28;20045;-66
2022/09/30 02:08:49;;;;;;;0.10;0.10;;;;;;;7.63;96.50;99590.16;5042711;28;20397;-64
2022/09/30 02:11:19;;;;;;;0.10;0.10;;;;;;;7.60;96.61;99598.03;5045881;28;20056;-66
2022/09/30 02:13:50;;;;;;;0.10;0.10;;;;;;;7.59;97.09;99590.94;5042074;28;20074;-64
2022/09/30 02:16:41;;;;;;;0.10;0.10;;;;;;;7.54;96.95;99596.34;5044018;28;20059;-65
2022/09/30 02:19:16;;;;;;;0.10;0.10;;;;;;;7.52;97.13;99586.56;5047390;28;20106;-65
2022/09/30 02:21:47;;;;;;;0.10;0.10;;;;;;;7.50;97.29;99588.72;5043149;28;20045;-65
2022/09/30 02:24:16;;;;;;;0.10;0.10;;;;;;;7.52;97.56;99596.59;5024027;28;20299;-65
2022/09/30 02:26:45;;;;;;;0.10;0.10;;;;;;;7.50;97.70;99591.44;5041677;28;20486;-65
2022/09/30 02:29:17;;;;;;;0.10;0.10;;;;;;;7.56;97.68;99603.16;5045297;28;20523;-63
2022/09/30 02:31:48;;;;;;;0.00;0.00;;;;;;;7.55;97.60;99596.06;5044841;28;20053;-65
2022/09/30 02:34:19;;;;;;;0.10;0.10;;;;;;;7.58;97.74;99601.03;5042905;28;20049;-65
2022/09/30 02:36:50;;;;;;;0.10;0.10;;;;;;;7.57;97.74;99591.22;5044105;28;20144;-65
2022/09/30 02:39:24;;;;;;;0.10;0.10;;;;;;;7.58;97.54;99583.84;5043557;28;20048;-66
2022/09/30 02:41:54;;;;;;;0.70;0.10;;;;;;;7.62;97.67;99588.53;5061536;28;20139;-64
2022/09/30 02:44:21;;;;;;;0.10;0.10;;;;;;;7.65;97.62;99603.53;5062667;28;20054;-65
2022/09/30 02:46:58;;;;;;;0.10;0.10;;;;;;;7.72;97.54;99592.38;5064753;28;20350;-65
2022/09/30 02:49:31;;;;;;;0.10;0.10;;;;;;;7.76;97.32;99580.72;5064230;28;20044;-65
2022/09/30 02:52:11;;;;;;;0.10;0.10;;;;;;;7.84;97.03;99584.88;5043951;28;20052;-66
2022/09/30 02:54:49;;;;;;;0.10;0.10;;;;;;;7.90;96.57;99589.28;5061229;28;20073;-66
2022/09/30 02:57:21;;;;;;;0.10;0.10;;;;;;;7.95;96.06;99600.19;5060704;28;20048;-66
2022/09/30 02:59:51;;;;;;;0.10;0.10;;;;;;;8.00;95.76;99598.56;5061739;28;20040;-65
2022/09/30 03:02:18;;;;;;;0.10;0.10;;;;;;;8.03;95.65;99595.31;5059097;28;20125;-66
2022/09/30 03:04:48;;;;;;;0.10;0.10;;;;;;;8.06;95.22;99594.81;5065473;28;20498;-66
2022/09/30 03:07:15;;;;;;;0.10;0.10;;;;;;;8.07;94.90;99593.72;5063221;28;20606;-65
2022/09/30 03:09:41;;;;;;;0.10;0.10;;;;;;;8.09;94.58;99603.25;5063127;28;20076;-65
2022/09/30 03:12:15;;;;;;;0.10;0.10;;;;;;;8.11;94.57;99611.19;5066279;28;20049;-65
2022/09/30 03:15:06;;;;;;;0.10;0.10;;;;;;;8.13;94.42;99609.00;5060804;28;20049;-64
2022/09/30 03:17:54;;;;;;;0.10;0.10;;;;;;;8.14;94.43;99602.47;5062821;28;20052;-64
2022/09/30 03:20:58;;;;;;;0.10;0.10;;;;;;;8.14;93.80;99609.84;5060839;28;20056;-64
2022/09/30 03:23:40;;;;;;;0.10;0.10;;;;;;;8.09;93.92;99597.81;5061784;28;20048;-65
2022/09/30 03:26:17;;;;;;;0.10;0.10;;;;;;;8.13;93.86;99600.03;5065123;28;20520;-64
2022/09/30 03:28:51;;;;;;;0.10;0.10;;;;;;;8.14;93.72;99612.56;5048548;28;20123;-64
2022/09/30 03:31:28;;;;;;;0.10;0.10;;;;;;;8.12;93.55;99610.09;5067397;28;20045;-66
2022/09/30 03:34:01;;;;;;;0.10;0.10;;;;;;;8.11;93.78;99611.19;5062587;28;20501;-65
2022/09/30 03:36:37;;;;;;;0.10;0.10;;;;;;;8.13;93.88;99614.47;5063104;28;20048;-65
2022/09/30 03:39:15;;;;;;;0.10;0.10;;;;;;;8.12;93.66;99607.38;5065312;28;20048;-66
2022/09/30 03:41:46;;;;;;;0.10;0.10;;;;;;;8.11;93.71;99607.63;5065576;28;20079;-64
2022/09/30 03:44:18;;;;;;;0.10;0.10;;;;;;;8.07;93.60;99616.31;5059280;28;20059;-65
2022/09/30 03:46:50;;;;;;;0.00;0.00;;;;;;;8.07;93.67;99607.34;5062930;28;20045;-65
2022/09/30 03:49:22;;;;;;;0.00;0.00;;;;;;;8.09;93.34;99607.91;5063091;28;20119;-64
2022/09/30 03:51:49;;;;;;;0.10;0.10;;;;;;;8.11;93.28;99618.50;5062709;28;20126;-65
2022/09/30 03:54:15;;;;;;;0.10;0.10;;;;;;;8.08;93.19;99615.25;5062746;28;20044;-65
2022/09/30 03:56:42;;;;;;;0.10;0.10;;;;;;;8.07;93.29;99615.53;5061096;28;20047;-65
2022/09/30 03:59:16;;;;;;;0.10;0.10;;;;;;;8.05;93.14;99623.94;5071597;28;20400;-65
2022/09/30 04:01:42;;;;;;;0.10;0.10;;;;;;;8.06;93.18;99622.84;5069576;28;20132;-65
2022/09/30 04:04:08;;;;;;;0.10;0.10;;;;;;;8.06;93.11;99620.13;5066472;28;20080;-64
2022/09/30 04:06:34;;;;;;;0.10;0.10;;;;;;;8.07;92.94;99615.53;5066769;28;20057;-64
2022/09/30 04:09:01;;;;;;;0.10;0.10;;;;;;;8.07;92.69;99620.97;5068408;28;20074;-64
2022/09/30 04:11:27;;;;;;;0.10;0.10;;;;;;;8.05;92.55;99615.78;5067042;28;20049;-68
2022/09/30 04:13:53;;;;;;;0.10;0.10;;;;;;;8.07;92.43;99608.16;5066185;28;20086;-64
2022/09/30 04:16:19;;;;;;;0.10;0.10;;;;;;;8.13;92.40;99605.47;5064563;28;20036;-65
2022/09/30 04:18:45;;;;;;;0.10;0.10;;;;;;;8.17;92.22;99604.66;5066313;28;20052;-65
2022/09/30 04:21:14;;;;;;;0.10;0.10;;;;;;;8.19;91.83;99605.22;5063718;28;20421;-65
2022/09/30 04:23:41;;;;;;;0.10;0.10;;;;;;;8.17;91.40;99599.22;5043325;28;20048;-66
2022/09/30 04:26:10;;;;;;;0.10;0.10;;;;;;;8.35;91.24;99630.66;5046449;28;20052;-66
2022/09/30 04:28:36;;;;;;;0.10;0.10;;;;;;;8.42;90.71;99624.13;5045900;28;20186;-66
2022/09/30 04:31:04;;;;;;;0.10;0.10;;;;;;;8.49;90.41;99628.25;5041820;28;20076;-65
2022/09/30 04:33:35;;;;;;;;;;;;;;;8.54;90.06;99632.16;5044311;28;20045;-66
2022/09/30 04:36:03;;;;;;;0.10;0.10;;;;;;;8.56;89.68;99628.06;5030789;28;19971;-65
2022/09/30 04:38:30;;;;;;;0.10;0.10;;;;;;;8.63;89.24;99620.47;5039265;28;20053;-64
2022/09/30 04:41:00;;;;;;;0.10;0.10;;;;;;;8.72;88.62;99628.13;4704610;28;10001052;-65
2022/09/30 04:43:28;;;;;;;0.10;0.10;;;;;;;8.76;88.21;99618.34;5043728;28;20139;-65
2022/09/30 04:45:54;;;;;;;0.10;0.10;;;;;;;8.78;87.87;99614.25;5040548;28;20059;-64
2022/09/30 04:48:21;;;;;;;0.10;0.10;;;;;;;8.85;87.68;99618.66;5043971;28;20044;-64
2022/09/30 04:50:47;;;;;;;0.10;0.10;;;;;;;8.90;87.67;99622.22;5008474;28;20052;-65
2022/09/30 04:53:13;;;;;;;0.10;0.10;;;;;;;8.94;87.12;99606.13;5042584;28;20476;-64
2022/09/30 04:55:40;;;;;;;;;;;;;;;8.97;87.21;99615.66;5043380;28;20056;-66
2022/09/30 04:58:06;;;;;;;0.10;0.10;;;;;;;8.99;87.06;99616.22;5041592;28;20323;-65
2022/09/30 05:00:34;;;;;;;0.13;0.13;;;;;;;9.00;86.88;99607.78;5025563;28;20060;-65
2022/09/30 05:03:00;;;;;;;0.10;0.10;;;;;;;9.02;86.91;99612.94;5024413;28;20507;-65
2022/09/30 05:05:26;;;;;;;0.20;0.20;;;;;;;9.05;87.16;99612.41;5051115;28;20048;-66
2022/09/30 05:07:52;;;;;;;0.20;0.20;;;;;;;9.09;86.86;99618.97;5061096;28;20072;-64
2022/09/30 05:10:18;;;;;;;0.10;0.10;;;;;;;9.14;87.05;99626.38;5059969;28;20439;-65
2022/09/30 05:12:44;;;;;;;0.10;0.10;;;;;;;9.20;86.91;99631.53;5045970;28;20048;-65
2022/09/30 05:15:10;;;;;;;0.10;0.10;;;;;;;9.21;86.68;99633.19;5058229;28;20052;-65
2022/09/30 05:17:38;;;;;;;0.40;0.20;;;;;;;9.20;86.89;99636.19;5065343;28;20056;-65
2022/09/30 05:20:09;;;;;;;0.10;0.10;;;;;;;9.24;87.32;99631.03;5057461;28;20041;-65
2022/09/30 05:22:35;;;;;;;0.10;0.10;;;;;;;9.34;87.14;99636.47;5037683;28;20044;-64
2022/09/30 05:25:03;;;;;;;0.17;0.10;;;;;;;9.38;86.70;99637.59;5035374;28;20065;-65
2022/09/30 05:27:29;;;;;;;0.13;0.13;;;;;;;9.40;86.44;99632.69;5042926;28;20495;-64
2022/09/30 05:29:55;;;;;;;0.52;0.20;;;;;;;9.44;86.21;99632.94;5050815;28;20136;-65
2022/09/30 05:32:21;;;;;;;0.20;0.17;;;;;;;9.53;85.38;99631.31;5058900;28;20072;-65
2022/09/30 05:34:49;;;;;;;0.30;0.20;;;;;;;9.62;85.06;99626.13;5055808;28;20110;-65
2022/09/30 05:37:15;;;;;;;0.20;0.20;;;;;;;9.70;84.47;99639.25;5044869;28;20342;-65
2022/09/30 05:39:41;;;;;;;0.20;0.20;;;;;;;9.74;83.51;99631.31;5046079;28;20103;-65
2022/09/30 05:42:07;;;;;;;0.20;0.20;;;;;;;9.73;83.26;99632.41;5028734;28;20188;-66
2022/09/30 05:44:33;;;;;;;0.20;0.20;;;;;;;9.79;82.92;99634.06;5025211;28;20580;-65
2022/09/30 05:46:59;;;;;;;0.20;0.20;;;;;;;9.80;82.71;99627.50;5016645;28;20172;-65
2022/09/30 05:49:25;;;;;;;0.10;0.10;;;;;;;9.84;82.41;99635.97;5050148;28;20068;-65
2022/09/30 05:51:53;;;;;;;0.15;0.15;;;;;;;9.91;82.01;99645.53;5057414;28;20087;-65
2022/09/30 05:54:19;;;;;;;0.20;0.20;;;;;;;9.99;81.68;99632.41;5046466;28;20061;-65
2022/09/30 05:56:45;;;;;;;0.20;0.20;;;;;;;10.01;80.97;99641.97;5043453;28;20046;-65
2022/09/30 05:59:11;;;;;;;0.20;0.20;;;;;;;10.08;80.99;99637.03;5038221;28;20049;-65
2022/09/30 06:01:37;;;;;;;0.20;0.20;;;;;;;10.05;80.76;99642.22;5041815;28;20079;-65
2022/09/30 06:04:03;;;;;;;0.10;0.10;;;;;;;10.07;80.69;99631.84;5042832;28;20075;-65
2022/09/30 06:06:30;;;;;;;0.10;0.10;;;;;;;10.11;80.68;99629.38;5040098;28;20132;-65
2022/09/30 06:08:58;;;;;;;0.13;0.13;;;;;;;10.19;80.34;99637.03;5043538;28;20040;-65
2022/09/30 06:11:24;;;;;;;0.20;0.20;;;;;;;10.27;80.19;99625.50;5042878;28;20064;-65
2022/09/30 06:13:51;;;;;;;0.20;0.20;;;;;;;10.30;79.72;99632.34;5042748;28;20069;-65
2022/09/30 06:16:18;;;;;;;0.30;0.20;;;;;;;10.40;79.80;99629.59;5044515;28;20254;-66
2022/09/30 06:18:44;;;;;;;0.57;0.30;;;;;;;10.52;79.48;99633.94;5043439;28;20049;-66
2022/09/30 06:21:12;;;;;;;1.30;0.30;;;;;;;10.64;78.99;99632.56;5042869;28;20086;-66
2022/09/30 06:23:39;;;;;;;0.47;0.30;;;;;;;10.75;78.03;99629.75;5044987;28;20041;-66
2022/09/30 06:26:10;;;;;;;0.20;0.20;;;;;;;10.87;77.65;99624.78;5046050;28;20530;-65
2022/09/30 06:28:36;;;;;;;0.20;0.20;;;;;;;10.92;77.21;99634.88;5044309;28;20429;-63
2022/09/30 06:31:02;;;;;;;0.22;0.22;;;;;;;11.07;77.06;99634.81;5033086;28;20420;-65
2022/09/30 06:33:29;;;;;;;0.20;0.20;;;;;;;11.22;76.08;99635.81;5042006;28;20428;-65
2022/09/30 06:35:55;;;;;;;0.30;0.30;;;;;;;11.26;75.64;99628.66;5044946;28;20047;-66
2022/09/30 06:38:22;;;;;;;0.20;0.20;;;;;;;11.36;75.78;99633.25;5039430;28;20507;-65
2022/09/30 06:40:49;;;;;;;0.20;0.20;;;;;;;11.43;75.34;99624.72;5039047;28;20268;-65
2022/09/30 06:43:17;;;;;;;0.47;0.30;;;;;;;11.54;75.11;99633.69;5036293;28;20051;-65
2022/09/30 06:45:44;;;;;;;0.20;0.20;;;;;;;11.69;74.50;99630.00;5039215;28;20052;-65
2022/09/30 06:48:10;;;;;;;;;;;;;;;11.74;73.95;99622.56;5041529;28;20462;-65
2022/09/30 06:50:38;;;;;;;0.63;0.40;;;;;;;11.79;73.51;99627.19;5044927;28;19968;-65
2022/09/30 06:53:06;;;;;;;0.25;0.25;;;;;;;11.81;73.49;99626.91;5046741;28;20060;-65
2022/09/30 06:55:35;;;;;;;0.30;0.30;;;;;;;11.95;73.53;99627.88;5042094;28;20045;-65
2022/09/30 06:58:01;;;;;;;0.40;0.40;;;;;;;12.25;72.64;99630.63;5041643;28;20586;-65
2022/09/30 07:00:28;;;;;;;0.30;0.30;;;;;;;12.57;71.16;99620.97;5046836;28;20563;-65
2022/09/30 07:02:56;;;;;;;0.75;0.30;;;;;;;12.75;70.51;99639.38;5046608;28;20055;-66
2022/09/30 07:05:24;;;;;;;;;;;;;;;12.87;69.89;99629.91;5026414;28;20057;-65
2022/09/30 07:07:51;;;;;;;0.35;0.35;;;;;;;13.08;68.60;99637.88;5042650;28;19968;-64
2022/09/30 07:10:17;;;;;;;0.30;0.30;;;;;;;13.38;67.82;99641.31;5045864;28;20073;-65
2022/09/30 07:12:43;;;;;;;0.52;0.38;;;;;;;13.27;66.99;99638.69;5039940;28;20052;-63
2022/09/30 07:15:09;;;;;;;0.30;0.30;;;;;;;12.96;68.49;99641.06;5045955;28;20044;-65
2022/09/30 07:17:36;;;;;;;0.40;0.40;;;;;;;12.93;68.59;99633.41;5042518;28;20045;-65
2022/09/30 07:20:03;;;;;;;0.30;0.30;;;;;;;12.93;68.20;99639.72;5040589;28;20053;-65
2022/09/30 07:22:30;;;;;;;0.30;0.30;;;;;;;13.10;68.47;99643.88;5043316;28;20139;-65
2022/09/30 07:24:57;;;;;;;0.40;0.40;;;;;;;13.53;67.04;99646.59;5047740;28;20052;-66
2022/09/30 07:27:23;;;;;;;0.30;0.30;;;;;;;13.60;66.67;99640.72;5045450;28;20041;-65
2022/09/30 07:29:49;;;;;;;0.30;0.30;;;;;;;13.80;66.39;99644.25;5040978;28;20035;-65
2022/09/30 07:32:18;;;;;;;0.32;0.32;;;;;;;14.02;65.91;99647.16;5045963;28;20061;-66
2022/09/30 07:34:45;;;;;;;0.30;0.30;;;;;;;14.41;64.46;99652.53;5051327;28;20481;-65
2022/09/30 07:37:13;;;;;;;0.40;0.40;;;;;;;14.52;63.32;99644.88;5049479;28;20099;-64
2022/09/30 07:39:39;;;;;;;0.65;0.40;;;;;;;14.43;63.88;99637.31;5045694;28;20048;-65
2022/09/30 07:42:05;;;;;;;0.40;0.40;;;;;;;14.84;62.97;99645.91;5044574;28;20053;-65
2022/09/30 07:44:32;;;;;;;0.30;0.30;;;;;;;14.96;62.04;99646.22;5044856;28;20416;-64
2022/09/30 07:46:59;;;;;;;0.73;0.30;;;;;;;14.72;63.26;99643.69;5043686;28;20056;-64
2022/09/30 07:49:25;;;;;;;0.30;0.30;;;;;;;14.39;64.15;99641.00;5045775;28;20339;-65
2022/09/30 07:51:54;;;;;;;0.32;0.32;;;;;;;14.05;65.82;99640.22;5047153;28;20133;-65
2022/09/30 07:54:23;;;;;;;0.35;0.30;;;;;;;13.69;66.86;99641.66;5044518;28;20037;-67
2022/09/30 07:56:50;;;;;;;0.30;0.30;;;;;;;13.62;67.63;99630.25;5043183;28;20057;-65
2022/09/30 07:59:17;;;;;;;0.30;0.30;;;;;;;13.86;67.35;99629.28;5046091;28;20044;-65
2022/09/30 08:01:44;;;;;;;0.30;0.30;;;;;;;14.13;66.68;99628.56;5046178;28;20060;-65
2022/09/30 08:04:12;;;;;;;0.30;0.30;;;;;;;14.35;65.49;99640.78;5044340;28;20160;-65
2022/09/30 08:06:40;;;;;;;0.30;0.30;;;;;;;14.66;64.91;99655.88;5046053;28;20060;-66
2022/09/30 08:09:08;;;;;;;0.30;0.30;;;;;;;14.83;63.80;99653.38;5044449;28;20057;-69
2022/09/30 08:11:36;;;;;;;0.30;0.30;;;;;;;14.88;64.15;99661.53;5045895;28;20451;-67
2022/09/30 08:14:01;;;;;;;;;;;;;;;14.90;64.26;99658.44;5042171;28;20503;-67
2022/09/30 08:16:28;;;;;;;0.30;0.30;;;;;;;14.81;64.77;99652.84;5043899;28;19929;-68
2022/09/30 08:18:54;;;;;;;0.30;0.30;;;;;;;14.66;65.09;99658.63;5046662;28;20076;-68
2022/09/30 08:21:21;;;;;;;0.30;0.30;;;;;;;14.58;65.51;99655.47;5042755;28;20420;-68
2022/09/30 08:23:47;;;;;;;0.33;0.30;;;;;;;14.60;65.80;99649.69;5025130;28;20121;-68
2022/09/30 08:26:15;;;;;;;0.30;0.30;;;;;;;14.81;65.54;99654.78;5045774;28;20045;-68
2022/09/30 08:28:42;;;;;;;0.40;0.40;;;;;;;14.76;65.45;99649.41;5049217;28;20460;-68
2022/09/30 08:31:10;;;;;;;0.40;0.40;;;;;;;14.79;65.97;99649.59;5049432;28;20542;-67
2022/09/30 08:33:37;;;;;;;0.30;0.30;;;;;;;14.69;66.17;99639.56;5048990;28;20416;-68
2022/09/30 08:36:04;;;;;;;0.30;0.30;;;;;;;14.53;66.89;99641.00;5050749;28;20440;-68
2022/09/30 08:38:30;;;;;;;0.30;0.30;;;;;;;14.45;67.84;99637.84;5047617;28;20055;-68
2022/09/30 08:41:09;;;;;;;0.30;0.30;;;;;;;14.39;68.43;99633.56;5048177;28;20389;-68
2022/09/30 08:43:49;;;;;;;0.30;0.30;;;;;;;14.46;68.40;99619.41;5040729;28;20060;-67
2022/09/30 08:46:36;;;;;;;0.30;0.30;;;;;;;14.68;68.00;99618.69;5044952;28;20048;-67
2022/09/30 08:49:09;;;;;;;0.30;0.30;;;;;;;14.67;68.13;99618.97;5043961;28;20451;-66
2022/09/30 08:51:38;;;;;;;0.40;0.40;;;;;;;14.80;68.06;99622.91;5045847;28;20079;-65
2022/09/30 08:54:10;;;;;;;0.30;0.30;;;;;;;15.11;67.32;99624.97;5047085;28;20540;-66
2022/09/30 08:56:36;;;;;;;0.40;0.40;;;;;;;15.16;67.28;99624.84;5046163;28;20029;-65
2022/09/30 08:59:13;;;;;;;0.30;0.30;;;;;;;15.13;67.31;99622.72;5044197;28;21129;-65
2022/09/30 09:01:43;;;;;;;0.63;0.40;;;;;;;15.27;67.38;99625.44;5049253;28;20083;-66
2022/09/30 09:04:09;;;;;;;0.40;0.40;;;;;;;15.64;66.41;99612.44;5029762;28;20431;-66
2022/09/30 09:06:45;;;;;;;0.40;0.40;;;;;;;16.09;65.12;99614.38;5044868;28;20049;-66
2022/09/30 09:09:33;;;;;;;0.50;0.50;;;;;;;16.26;64.38;99610.88;5046079;28;20137;-65
2022/09/30 09:12:12;;;;;;;0.40;0.40;;;;;;;16.33;63.97;99607.69;5038172;28;20071;-66
2022/09/30 09:14:51;;;;;;;0.40;0.40;;;;;;;16.63;63.44;99609.88;5042878;28;20541;-65
2022/09/30 09:17:33;;;;;;;0.40;0.40;;;;;;;17.01;62.37;99604.63;5009984;28;20045;-66
2022/09/30 09:20:11;;;;;;;0.40;0.40;;;;;;;17.22;61.29;99605.94;5024571;28;20045;-68
2022/09/30 09:22:38;;;;;;;0.40;0.40;;;;;;;17.19;61.40;99609.38;5047047;28;20049;-66
2022/09/30 09:25:04;;;;;;;0.47;0.47;;;;;;;17.31;61.62;99601.22;5045461;28;20456;-65
2022/09/30 09:27:44;;;;;;;0.63;0.50;;;;;;;17.55;60.78;99603.47;5043870;28;20041;-65
2022/09/30 09:30:18;;;;;;;0.40;0.40;;;;;;;18.26;58.67;99595.88;5044344;28;20044;-65
2022/09/30 09:32:50;;;;;;;0.40;0.40;;;;;;;18.10;58.58;99601.13;5044780;28;20052;-65
2022/09/30 09:35:26;;;;;;;0.38;0.38;;;;;;;17.64;60.05;99597.97;5046942;28;20067;-65
2022/09/30 09:40:58;;;;;;;0.32;0.32;;;;;;;16.78;63.23;99600.31;5048672;28;20161;-66
2022/09/30 09:43:33;;;;;;;0.30;0.30;;;;;;;16.46;64.44;99594.88;5039782;28;20045;-66
2022/09/30 09:46:11;;;;;;;0.30;0.30;;;;;;;16.26;65.43;99604.53;5041946;28;20136;-66
2022/09/30 09:48:38;;;;;;;0.70;0.70;;;;;;;16.28;66.10;99605.03;5043331;28;20542;-66
2022/09/30 09:51:12;;;;;;;0.55;0.30;;;;;;;17.06;63.96;99619.41;5043649;28;20102;-66
2022/09/30 09:53:44;;;;;;;0.40;0.40;;;;;;;17.36;62.38;99606.59;5041728;28;20088;-66
2022/09/30 09:56:16;;;;;;;0.30;0.30;;;;;;;17.12;62.86;99599.59;5025877;28;20052;-66
2022/09/30 09:59:07;;;;;;;0.30;0.30;;;;;;;16.73;64.20;99602.09;5044923;28;20073;-66
2022/09/30 10:01:37;;;;;;;0.40;0.40;;;;;;;16.60;65.09;99605.81;5045168;28;20143;-66
2022/09/30 10:04:10;;;;;;;0.40;0.40;;;;;;;16.73;64.78;99612.34;5036313;28;20854;-65
2022/09/30 10:06:48;;;;;;;1.10;1.10;;;;;;;17.40;63.60;99607.56;5041499;28;20068;-66
2022/09/30 10:09:26;;;;;;;0.70;0.70;;;;;;;19.21;57.80;99616.22;5044801;28;20056;-65
2022/09/30 10:12:23;;;;;;;0.90;0.90;;;;;;;19.66;55.76;99623.00;5045873;28;20147;-66
2022/09/30 10:14:55;;;;;;;0.40;0.40;;;;;;;19.39;56.12;99622.41;5041030;28;20049;-66
2022/09/30 10:17:28;;;;;;;0.50;0.50;;;;;;;19.09;57.17;99615.00;5044550;28;20155;-65
2022/09/30 10:20:00;;;;;;;0.40;0.40;;;;;;;18.70;58.09;99614.22;5041866;28;20056;-67
2022/09/30 10:22:27;;;;;;;0.60;0.60;;;;;;;18.94;57.75;99612.78;5043963;28;20413;-66
2022/09/30 10:25:09;;;;;;;0.70;0.70;;;;;;;19.45;56.11;99620.25;5042880;28;20041;-66
2022/09/30 10:27:45;;;;;;;0.85;0.60;;;;;;;19.44;56.06;99608.38;5049178;28;20079;-66
2022/09/30 10:30:11;;;;;;;0.50;0.50;;;;;;;19.63;55.88;99607.06;5045970;28;20049;-66
2022/09/30 10:32:39;;;;;;;0.40;0.40;;;;;;;19.73;55.58;99608.59;5048715;28;20051;-66
2022/09/30 10:35:17;;;;;;;0.40;0.40;;;;;;;18.90;57.45;99603.53;5047302;28;20094;-66
2022/09/30 10:37:49;;;;;;;;;;;;;;;17.96;60.13;99611.56;5043220;28;20242;-66
2022/09/30 10:40:17;;;;;;;0.40;0.40;;;;;;;17.39;62.46;99610.66;5038730;28;19974;-65
2022/09/30 10:42:47;;;;;;;0.30;0.30;;;;;;;17.19;63.46;99609.38;5042651;28;20537;-66
2022/09/30 10:45:19;;;;;;;0.30;0.30;;;;;;;16.89;64.72;99601.66;5045187;28;20048;-66
2022/09/30 10:47:51;;;;;;;0.30;0.30;;;;;;;16.63;65.75;99601.59;5046755;28;20137;-66
2022/09/30 10:50:21;;;;;;;0.30;0.30;;;;;;;16.42;66.38;99602.19;5040681;28;20521;-65
2022/09/30 10:52:54;;;;;;;0.28;0.28;;;;;;;16.19;67.19;99598.69;5042388;28;20064;-65
2022/09/30 10:55:29;;;;;;;0.30;0.30;;;;;;;16.09;68.39;99592.31;5036772;28;20554;-65
2022/09/30 10:58:02;;;;;;;0.30;0.30;;;;;;;16.11;68.23;99597.50;5042850;28;20052;-64
2022/09/30 11:00:31;;;;;;;0.30;0.30;;;;;;;16.14;68.45;99605.94;5036858;28;20051;-66
2022/09/30 11:03:04;;;;;;;0.40;0.40;;;;;;;16.12;68.37;99604.66;5044868;28;20037;-66
2022/09/30 11:05:35;;;;;;;0.30;0.30;;;;;;;16.17;68.83;99596.22;5045367;28;20051;-66
2022/09/30 11:08:09;;;;;;;0.40;0.40;;;;;;;16.41;67.82;99592.28;5047283;28;20454;-66
2022/09/30 11:10:44;;;;;;;0.30;0.30;;;;;;;16.51;67.80;99602.22;5049723;28;20428;-66
2022/09/30 11:13:18;;;;;;;0.50;0.40;;;;;;;16.72;66.65;99592.19;5046138;28;20044;-66
2022/09/30 11:15:56;;;;;;;0.50;0.50;;;;;;;16.96;65.76;99598.41;5037811;28;20049;-66
2022/09/30 11:18:33;;;;;;;0.50;0.50;;;;;;;17.29;65.17;99596.03;5044874;28;20048;-66
2022/09/30 11:21:03;;;;;;;0.50;0.50;;;;;;;17.75;63.68;99594.84;5042762;28;20134;-67
2022/09/30 11:23:34;;;;;;;0.60;0.60;;;;;;;18.21;62.50;99596.03;5047873;28;20068;-66
2022/09/30 11:26:04;;;;;;;0.60;0.60;;;;;;;19.18;59.60;99609.38;5045094;28;20486;-66
2022/09/30 11:28:59;;;;;;;0.50;0.50;;;;;;;19.77;57.05;99603.97;5051019;28;20037;-66
2022/09/30 11:31:30;;;;;;;0.40;0.40;;;;;;;19.61;57.74;99593.50;5049447;28;20037;-66
2022/09/30 11:34:18;;;;;;;0.40;0.40;;;;;;;18.95;58.77;99584.72;5040096;28;20053;-66
2022/09/30 11:36:54;;;;;;;0.38;0.38;;;;;;;18.44;60.77;99587.50;5045062;28;20499;-66
2022/09/30 11:39:38;;;;;;;0.40;0.40;;;;;;;18.03;61.47;99597.25;5045398;28;20049;-65
2022/09/30 11:42:09;;;;;;;0.35;0.35;;;;;;;17.64;62.10;99597.16;5024687;28;20053;-66
2022/09/30 11:44:40;;;;;;;0.32;0.32;;;;;;;17.44;62.74;99597.47;5045876;28;20344;-66
2022/09/30 11:47:40;;;;;;;0.30;0.30;;;;;;;17.35;63.29;99593.09;5044862;28;20055;-67
2022/09/30 11:50:30;;;;;;;0.30;0.30;;;;;;;17.34;63.49;99599.75;5051010;28;20040;-65
2022/09/30 11:53:12;;;;;;;0.30;0.30;;;;;;;17.32;63.82;99599.28;5043385;28;20148;-65
2022/09/30 11:55:58;;;;;;;0.57;0.30;;;;;;;17.23;63.84;99604.81;5044658;28;20133;-66
2022/09/30 11:58:31;;;;;;;0.30;0.30;;;;;;;17.10;64.61;99607.41;5045487;28;20049;-65
2022/09/30 12:01:04;;;;;;;0.30;0.30;;;;;;;16.90;65.31;99619.03;5045532;28;20041;-65
2022/09/30 12:03:38;;;;;;;0.20;0.20;;;;;;;16.69;65.89;99617.69;5045144;28;20412;-66